sensor_id;sensor_type;location;lat;lon;timestamp;pressure;altitude;pressure_sealevel;temperature;humidity
49397;BME280;35615;41.410;2.194;2022-08-06T00:02:41;101455.81;;;29.87;41.79
49397;BME280;35615;41.410;2.194;2022-08-06T00:05:09;101452.28;;;29.86;41.81
49397;BME280;35615;41.410;2.194;2022-08-06T00:07:49;101460.13;;;29.91;41.55
49397;BME280;35615;41.410;2.194;2022-08-06T00:10:19;101463.91;;;29.84;41.82
49397;BME280;35615;41.410;2.194;2022-08-06T00:12:57;101465.69;;;29.83;41.81
49397;BME280;35615;41.410;2.194;2022-08-06T00:15:27;101456.03;;;29.79;42.18
49397;BME280;35615;41.410;2.194;2022-08-06T00:18:15;101464.03;;;29.79;42.70
49397;BME280;35615;41.410;2.194;2022-08-06T00:20:44;101472.13;;;29.76;43.21
49397;BME280;35615;41.410;2.194;2022-08-06T00:23:16;101472.94;;;29.78;43.05
49397;BME280;35615;41.410;2.194;2022-08-06T00:25:44;101473.81;;;29.78;43.48
49397;BME280;35615;41.410;2.194;2022-08-06T00:28:17;101470.44;;;29.73;43.53
49397;BME280;35615;41.410;2.194;2022-08-06T00:30:46;101470.69;;;29.64;43.77
49397;BME280;35615;41.410;2.194;2022-08-06T00:33:14;101483.19;;;29.62;44.21
49397;BME280;35615;41.410;2.194;2022-08-06T00:35:42;101479.66;;;29.62;44.49
49397;BME280;35615;41.410;2.194;2022-08-06T00:38:11;101481.34;;;29.64;43.98
49397;BME280;35615;41.410;2.194;2022-08-06T00:40:40;101479.72;;;29.60;44.13
49397;BME280;35615;41.410;2.194;2022-08-06T00:43:24;101485.00;;;29.29;45.68
49397;BME280;35615;41.410;2.194;2022-08-06T00:45:51;101489.97;;;29.41;45.05
49397;BME280;35615;41.410;2.194;2022-08-06T00:48:21;101481.88;;;29.44;44.67
49397;BME280;35615;41.410;2.194;2022-08-06T00:51:08;101486.44;;;29.41;45.01
49397;BME280;35615;41.410;2.194;2022-08-06T00:53:44;101481.94;;;29.43;44.71
49397;BME280;35615;41.410;2.194;2022-08-06T00:56:14;101476.66;;;29.41;44.75
49397;BME280;35615;41.410;2.194;2022-08-06T00:58:41;101474.88;;;29.42;44.81
49397;BME280;35615;41.410;2.194;2022-08-06T01:01:09;101481.03;;;29.44;44.56
49397;BME280;35615;41.410;2.194;2022-08-06T01:03:44;101480.34;;;29.36;44.70
49397;BME280;35615;41.410;2.194;2022-08-06T01:06:19;101479.47;;;29.35;45.29
49397;BME280;35615;41.410;2.194;2022-08-06T01:09:07;101482.28;;;29.31;45.16
49397;BME280;35615;41.410;2.194;2022-08-06T01:11:37;101484.19;;;29.26;44.32
49397;BME280;35615;41.410;2.194;2022-08-06T01:14:06;101484.16;;;29.27;44.30
49397;BME280;35615;41.410;2.194;2022-08-06T01:16:47;101493.19;;;29.21;44.34
49397;BME280;35615;41.410;2.194;2022-08-06T01:27:38;101486.66;;;29.01;43.46
49397;BME280;35615;41.410;2.194;2022-08-06T01:30:15;101482.19;;;29.01;43.10
49397;BME280;35615;41.410;2.194;2022-08-06T01:36:09;101477.50;;;29.11;42.71
49397;BME280;35615;41.410;2.194;2022-08-06T01:38:46;101472.13;;;29.12;42.48
49397;BME280;35615;41.410;2.194;2022-08-06T01:41:30;101474.72;;;29.15;42.53
49397;BME280;35615;41.410;2.194;2022-08-06T01:44:29;101477.31;;;29.18;42.67
49397;BME280;35615;41.410;2.194;2022-08-06T01:47:02;101484.53;;;29.13;42.98
49397;BME280;35615;41.410;2.194;2022-08-06T01:49:52;101477.38;;;29.15;42.83
49397;BME280;35615;41.410;2.194;2022-08-06T01:52:32;101480.00;;;29.17;43.25
49397;BME280;35615;41.410;2.194;2022-08-06T01:55:06;101476.47;;;29.16;43.06
49397;BME280;35615;41.410;2.194;2022-08-06T01:57:40;101474.72;;;29.15;43.32
49397;BME280;35615;41.410;2.194;2022-08-06T02:00:29;101478.38;;;29.11;43.57
49397;BME280;35615;41.410;2.194;2022-08-06T02:03:00;101476.78;;;29.06;43.64
49397;BME280;35615;41.410;2.194;2022-08-06T02:05:34;101478.34;;;29.13;43.84
49397;BME280;35615;41.410;2.194;2022-08-06T02:08:20;101481.88;;;29.13;43.74
49397;BME280;35615;41.410;2.194;2022-08-06T02:11:08;101482.81;;;29.11;43.59
49397;BME280;35615;41.410;2.194;2022-08-06T02:13:58;101491.72;;;29.10;43.60
49397;BME280;35615;41.410;2.194;2022-08-06T02:16:33;101489.97;;;29.09;43.75
49397;BME280;35615;41.410;2.194;2022-08-06T02:19:10;101480.94;;;29.14;43.34
49397;BME280;35615;41.410;2.194;2022-08-06T02:21:43;101481.97;;;29.10;43.42
49397;BME280;35615;41.410;2.194;2022-08-06T02:24:24;101480.31;;;29.06;43.35
49397;BME280;35615;41.410;2.194;2022-08-06T02:26:58;101483.78;;;29.08;43.31
49397;BME280;35615;41.410;2.194;2022-08-06T02:29:29;101480.34;;;29.05;42.90
49397;BME280;35615;41.410;2.194;2022-08-06T02:32:17;101483.06;;;29.02;43.45
49397;BME280;35615;41.410;2.194;2022-08-06T02:34:48;101476.69;;;29.09;42.90
49397;BME280;35615;41.410;2.194;2022-08-06T02:37:20;101481.50;;;28.95;43.09
49397;BME280;35615;41.410;2.194;2022-08-06T02:40:13;101477.69;;;29.03;42.92
49397;BME280;35615;41.410;2.194;2022-08-06T02:42:57;101475.47;;;28.88;43.37
49397;BME280;35615;41.410;2.194;2022-08-06T02:45:38;101466.63;;;28.86;43.62
49397;BME280;35615;41.410;2.194;2022-08-06T02:48:32;101466.47;;;28.93;43.55
49397;BME280;35615;41.410;2.194;2022-08-06T02:51:05;101467.44;;;28.89;43.85
49397;BME280;35615;41.410;2.194;2022-08-06T02:54:03;101470.06;;;28.91;44.04
49397;BME280;35615;41.410;2.194;2022-08-06T02:56:35;101463.88;;;28.90;44.14
49397;BME280;35615;41.410;2.194;2022-08-06T03:02:31;101456.81;;;28.89;44.20
49397;BME280;35615;41.410;2.194;2022-08-06T03:05:01;101457.91;;;28.79;44.48
49397;BME280;35615;41.410;2.194;2022-08-06T03:07:31;101459.63;;;28.82;44.77
49397;BME280;35615;41.410;2.194;2022-08-06T03:10:01;101459.84;;;28.74;44.46
49397;BME280;35615;41.410;2.194;2022-08-06T03:12:38;101459.88;;;28.73;44.83
49397;BME280;35615;41.410;2.194;2022-08-06T03:15:10;101459.00;;;28.72;45.40
49397;BME280;35615;41.410;2.194;2022-08-06T03:17:58;101460.81;;;28.72;45.43
49397;BME280;35615;41.410;2.194;2022-08-06T03:20:31;101457.28;;;28.71;45.43
49397;BME280;35615;41.410;2.194;2022-08-06T03:23:02;101467.91;;;28.71;45.48
49397;BME280;35615;41.410;2.194;2022-08-06T03:25:31;101467.97;;;28.68;45.72
49397;BME280;35615;41.410;2.194;2022-08-06T03:28:09;101472.41;;;28.68;45.82
49397;BME280;35615;41.410;2.194;2022-08-06T03:30:48;101464.38;;;28.69;45.52
49397;BME280;35615;41.410;2.194;2022-08-06T03:33:24;101469.03;;;28.61;45.86
49397;BME280;35615;41.410;2.194;2022-08-06T03:36:13;101466.31;;;28.64;45.87
49397;BME280;35615;41.410;2.194;2022-08-06T03:38:49;101468.31;;;28.54;46.22
49397;BME280;35615;41.410;2.194;2022-08-06T03:41:24;101469.31;;;28.49;46.59
49397;BME280;35615;41.410;2.194;2022-08-06T03:44:01;101469.31;;;28.49;46.16
49397;BME280;35615;41.410;2.194;2022-08-06T03:46:48;101466.72;;;28.47;46.24
49397;BME280;35615;41.410;2.194;2022-08-06T03:49:23;101466.88;;;28.41;46.81
49397;BME280;35615;41.410;2.194;2022-08-06T03:52:07;101467.78;;;28.40;46.27
49397;BME280;35615;41.410;2.194;2022-08-06T03:54:44;101469.63;;;28.38;46.44
49397;BME280;35615;41.410;2.194;2022-08-06T03:57:20;101468.78;;;28.34;47.17
49397;BME280;35615;41.410;2.194;2022-08-06T03:59:58;101465.22;;;28.35;46.37
49397;BME280;35615;41.410;2.194;2022-08-06T04:02:41;101473.91;;;28.44;46.40
49397;BME280;35615;41.410;2.194;2022-08-06T04:05:23;101461.56;;;28.41;46.04
49397;BME280;35615;41.410;2.194;2022-08-06T04:07:56;101465.00;;;28.45;46.18
49397;BME280;35615;41.410;2.194;2022-08-06T04:10:32;101471.28;;;28.42;45.87
49397;BME280;35615;41.410;2.194;2022-08-06T04:13:04;101469.31;;;28.50;45.50
49397;BME280;35615;41.410;2.194;2022-08-06T04:15:53;101474.72;;;28.46;45.47
49397;BME280;35615;41.410;2.194;2022-08-06T04:18:27;101467.66;;;28.45;45.66
49397;BME280;35615;41.410;2.194;2022-08-06T04:21:02;101466.88;;;28.41;45.60
49397;BME280;35615;41.410;2.194;2022-08-06T04:23:53;101464.91;;;28.49;45.61
49397;BME280;35615;41.410;2.194;2022-08-06T04:26:23;101471.28;;;28.42;45.57
49397;BME280;35615;41.410;2.194;2022-08-06T04:28:55;101476.69;;;28.39;45.84
49397;BME280;35615;41.410;2.194;2022-08-06T04:31:26;101477.50;;;28.41;45.89
49397;BME280;35615;41.410;2.194;2022-08-06T04:34:20;101475.84;;;28.35;45.85
49397;BME280;35615;41.410;2.194;2022-08-06T04:36:56;101476.69;;;28.39;45.22
49397;BME280;35615;41.410;2.194;2022-08-06T04:39:25;101479.34;;;28.38;45.69
49397;BME280;35615;41.410;2.194;2022-08-06T04:42:13;101474.06;;;28.36;45.63
49397;BME280;35615;41.410;2.194;2022-08-06T04:44:42;101489.09;;;28.39;45.31
49397;BME280;35615;41.410;2.194;2022-08-06T04:47:11;101485.09;;;28.19;45.03
49397;BME280;35615;41.410;2.194;2022-08-06T04:49:46;101491.94;;;28.31;45.17
49397;BME280;35615;41.410;2.194;2022-08-06T04:52:29;101495.41;;;28.33;44.80
49397;BME280;35615;41.410;2.194;2022-08-06T04:55:18;101494.41;;;28.39;44.18
49397;BME280;35615;41.410;2.194;2022-08-06T04:58:03;101498.03;;;28.34;44.13
49397;BME280;35615;41.410;2.194;2022-08-06T05:00:42;101504.25;;;28.33;44.12
49397;BME280;35615;41.410;2.194;2022-08-06T05:03:30;101498.78;;;28.41;43.84
49397;BME280;35615;41.410;2.194;2022-08-06T05:09:18;101497.94;;;28.38;43.16
49397;BME280;35615;41.410;2.194;2022-08-06T05:12:31;101506.66;;;28.44;43.38
49397;BME280;35615;41.410;2.194;2022-08-06T05:17:34;101507.38;;;28.52;43.17
49397;BME280;35615;41.410;2.194;2022-08-06T05:20:11;101510.84;;;28.54;42.89
49397;BME280;35615;41.410;2.194;2022-08-06T05:23:22;101506.59;;;28.47;42.97
49397;BME280;35615;41.410;2.194;2022-08-06T05:25:57;101508.88;;;28.62;43.63
49397;BME280;35615;41.410;2.194;2022-08-06T05:28:25;101507.16;;;28.60;43.42
49397;BME280;35615;41.410;2.194;2022-08-06T05:30:54;101506.19;;;28.64;43.41
49397;BME280;35615;41.410;2.194;2022-08-06T05:35:56;101505.44;;;28.57;43.65
49397;BME280;35615;41.410;2.194;2022-08-06T05:38:33;101509.75;;;28.63;43.83
49397;BME280;35615;41.410;2.194;2022-08-06T05:41:07;101506.19;;;28.64;43.88
49397;BME280;35615;41.410;2.194;2022-08-06T05:43:39;101509.72;;;28.64;43.69
49397;BME280;35615;41.410;2.194;2022-08-06T05:46:28;101523.94;;;28.63;43.40
49397;BME280;35615;41.410;2.194;2022-08-06T05:49:09;101519.56;;;28.59;43.13
49397;BME280;35615;41.410;2.194;2022-08-06T05:52:24;101522.22;;;28.61;42.97
49397;BME280;35615;41.410;2.194;2022-08-06T05:55:04;101533.03;;;28.53;43.39
49397;BME280;35615;41.410;2.194;2022-08-06T05:58:01;101531.06;;;28.61;42.87
49397;BME280;35615;41.410;2.194;2022-08-06T06:00:32;101524.75;;;28.65;43.26
49397;BME280;35615;41.410;2.194;2022-08-06T06:03:14;101522.97;;;28.66;42.89
49397;BME280;35615;41.410;2.194;2022-08-06T06:05:56;101528.94;;;28.76;42.60
49397;BME280;35615;41.410;2.194;2022-08-06T06:08:44;101528.28;;;28.66;43.04
49397;BME280;35615;41.410;2.194;2022-08-06T06:11:26;101532.38;;;28.79;42.91
49397;BME280;35615;41.410;2.194;2022-08-06T06:17:15;101534.94;;;28.84;43.06
49397;BME280;35615;41.410;2.194;2022-08-06T06:20:02;101529.53;;;28.88;43.05
49397;BME280;35615;41.410;2.194;2022-08-06T06:22:46;101537.47;;;28.90;43.49
49397;BME280;35615;41.410;2.194;2022-08-06T06:25:24;101538.34;;;28.90;43.50
49397;BME280;35615;41.410;2.194;2022-08-06T06:28:19;101529.34;;;28.96;43.06
49397;BME280;35615;41.410;2.194;2022-08-06T06:31:00;101530.13;;;29.00;42.92
49397;BME280;35615;41.410;2.194;2022-08-06T06:33:49;101535.16;;;29.10;42.82
49397;BME280;35615;41.410;2.194;2022-08-06T06:36:33;101536.50;;;28.92;42.98
49397;BME280;35615;41.410;2.194;2022-08-06T06:39:17;101533.97;;;28.88;42.98
49397;BME280;35615;41.410;2.194;2022-08-06T06:41:56;101536.50;;;28.92;42.75
49397;BME280;35615;41.410;2.194;2022-08-06T06:44:50;101536.50;;;28.94;43.05
49397;BME280;35615;41.410;2.194;2022-08-06T06:47:43;101537.25;;;28.99;42.89
49397;BME280;35615;41.410;2.194;2022-08-06T06:50:22;101533.72;;;28.99;42.87
49397;BME280;35615;41.410;2.194;2022-08-06T06:52:53;101536.19;;;29.06;43.20
49397;BME280;35615;41.410;2.194;2022-08-06T06:55:36;101528.25;;;29.05;43.18
49397;BME280;35615;41.410;2.194;2022-08-06T06:58:47;101534.25;;;29.11;43.17
49397;BME280;35615;41.410;2.194;2022-08-06T07:01:18;101533.25;;;29.15;43.17
49397;BME280;35615;41.410;2.194;2022-08-06T07:03:56;101533.16;;;29.20;43.19
49397;BME280;35615;41.410;2.194;2022-08-06T07:06:26;101533.94;;;29.23;42.91
49397;BME280;35615;41.410;2.194;2022-08-06T07:09:14;101532.03;;;29.29;42.59
49397;BME280;35615;41.410;2.194;2022-08-06T07:12:03;101529.19;;;29.35;42.48
49397;BME280;35615;41.410;2.194;2022-08-06T07:14:47;101533.53;;;29.39;42.35
49397;BME280;35615;41.410;2.194;2022-08-06T07:17:31;101529.84;;;29.43;42.27
49397;BME280;35615;41.410;2.194;2022-08-06T07:20:19;101533.22;;;29.51;42.27
49397;BME280;35615;41.410;2.194;2022-08-06T07:22:56;101541.06;;;29.56;42.29
49397;BME280;35615;41.410;2.194;2022-08-06T07:25:46;101537.38;;;29.60;42.47
49397;BME280;35615;41.410;2.194;2022-08-06T07:28:25;101536.31;;;29.67;42.32
49397;BME280;35615;41.410;2.194;2022-08-06T07:30:59;101547.56;;;29.76;42.13
49397;BME280;35615;41.410;2.194;2022-08-06T07:33:39;101550.06;;;29.83;41.69
49397;BME280;35615;41.410;2.194;2022-08-06T07:36:31;101545.47;;;29.88;42.29
49397;BME280;35615;41.410;2.194;2022-08-06T07:39:08;101554.84;;;30.01;42.30
49397;BME280;35615;41.410;2.194;2022-08-06T07:41:42;101548.41;;;30.10;42.38
49397;BME280;35615;41.410;2.194;2022-08-06T07:44:34;101543.84;;;30.13;41.86
49397;BME280;35615;41.410;2.194;2022-08-06T07:47:34;101542.69;;;30.22;42.09
49397;BME280;35615;41.410;2.194;2022-08-06T07:50:23;101545.22;;;30.26;41.46
49397;BME280;35615;41.410;2.194;2022-08-06T07:52:55;101545.78;;;30.38;41.71
49397;BME280;35615;41.410;2.194;2022-08-06T07:55:27;101545.66;;;30.41;41.40
49397;BME280;35615;41.410;2.194;2022-08-06T07:58:07;101549.16;;;30.43;41.05
49397;BME280;35615;41.410;2.194;2022-08-06T08:00:39;101555.00;;;30.54;41.14
49397;BME280;35615;41.410;2.194;2022-08-06T08:03:15;101554.69;;;30.64;41.15
49397;BME280;35615;41.410;2.194;2022-08-06T08:06:24;101552.56;;;30.76;40.53
49397;BME280;35615;41.410;2.194;2022-08-06T08:09:01;101553.13;;;30.85;40.19
49397;BME280;35615;41.410;2.194;2022-08-06T08:11:31;101555.25;;;31.01;40.11
49397;BME280;35615;41.410;2.194;2022-08-06T08:14:21;101547.81;;;31.10;39.63
49397;BME280;35615;41.410;2.194;2022-08-06T08:16:51;101546.34;;;31.28;40.04
49397;BME280;35615;41.410;2.194;2022-08-06T08:19:26;101548.34;;;31.46;39.45
49397;BME280;35615;41.410;2.194;2022-08-06T08:24:43;101554.66;;;31.92;38.56
49397;BME280;35615;41.410;2.194;2022-08-06T08:27:20;101550.63;;;32.05;38.47
49397;BME280;35615;41.410;2.194;2022-08-06T08:30:03;101553.03;;;32.35;38.28
49397;BME280;35615;41.410;2.194;2022-08-06T08:32:31;101547.03;;;32.52;37.50
49397;BME280;35615;41.410;2.194;2022-08-06T08:34:59;101546.88;;;32.77;37.35
49397;BME280;35615;41.410;2.194;2022-08-06T08:37:29;101543.81;;;33.08;36.80
49397;BME280;35615;41.410;2.194;2022-08-06T08:39:58;101554.78;;;33.22;36.62
49397;BME280;35615;41.410;2.194;2022-08-06T08:42:32;101555.81;;;33.60;36.48
49397;BME280;35615;41.410;2.194;2022-08-06T08:45:04;101547.38;;;33.88;35.67
49397;BME280;35615;41.410;2.194;2022-08-06T08:47:52;101548.31;;;34.25;34.51
49397;BME280;35615;41.410;2.194;2022-08-06T08:50:28;101547.44;;;34.62;33.75
49397;BME280;35615;41.410;2.194;2022-08-06T08:53:00;101553.72;;;34.97;34.04
49397;BME280;35615;41.410;2.194;2022-08-06T08:55:31;101553.63;;;35.33;32.96
49397;BME280;35615;41.410;2.194;2022-08-06T08:58:19;101554.22;;;35.73;31.76
49397;BME280;35615;41.410;2.194;2022-08-06T09:01:08;101549.28;;;36.14;31.07
49397;BME280;35615;41.410;2.194;2022-08-06T09:03:56;101545.19;;;36.23;30.11
49397;BME280;35615;41.410;2.194;2022-08-06T09:06:24;101544.22;;;36.24;30.36
49397;BME280;35615;41.410;2.194;2022-08-06T09:08:57;101555.53;;;36.46;29.27
49397;BME280;35615;41.410;2.194;2022-08-06T09:11:34;101548.16;;;36.50;29.43
49397;BME280;35615;41.410;2.194;2022-08-06T09:14:21;101553.81;;;36.91;29.23
49397;BME280;35615;41.410;2.194;2022-08-06T09:17:04;101552.69;;;36.79;28.36
49397;BME280;35615;41.410;2.194;2022-08-06T09:19:38;101553.31;;;36.84;27.53
49397;BME280;35615;41.410;2.194;2022-08-06T09:22:08;101553.78;;;37.07;28.16
49397;BME280;35615;41.410;2.194;2022-08-06T09:24:39;101559.84;;;37.10;28.25
49397;BME280;35615;41.410;2.194;2022-08-06T09:27:15;101557.13;;;36.96;27.96
49397;BME280;35615;41.410;2.194;2022-08-06T09:30:05;101557.97;;;37.27;27.45
49397;BME280;35615;41.410;2.194;2022-08-06T09:32:54;101553.78;;;37.37;27.43
49397;BME280;35615;41.410;2.194;2022-08-06T09:35:28;101565.94;;;37.58;26.54
49397;BME280;35615;41.410;2.194;2022-08-06T09:38:12;101559.84;;;37.24;26.51
49397;BME280;35615;41.410;2.194;2022-08-06T09:41:07;101558.00;;;37.41;25.91
49397;BME280;35615;41.410;2.194;2022-08-06T09:43:45;101561.13;;;37.92;26.17
49397;BME280;35615;41.410;2.194;2022-08-06T09:46:38;101554.63;;;37.66;25.40
49397;BME280;35615;41.410;2.194;2022-08-06T09:49:09;101559.25;;;38.06;25.74
49397;BME280;35615;41.410;2.194;2022-08-06T09:52:17;101558.28;;;38.22;25.18
49397;BME280;35615;41.410;2.194;2022-08-06T09:54:48;101563.50;;;38.25;25.20
49397;BME280;35615;41.410;2.194;2022-08-06T09:57:23;101564.66;;;37.64;25.75
49397;BME280;35615;41.410;2.194;2022-08-06T10:00:04;101558.03;;;37.84;25.43
49397;BME280;35615;41.410;2.194;2022-08-06T10:02:41;101554.16;;;38.02;25.02
49397;BME280;35615;41.410;2.194;2022-08-06T10:05:16;101566.03;;;37.71;25.41
49397;BME280;35615;41.410;2.194;2022-08-06T10:07:47;101565.53;;;38.07;24.61
49397;BME280;35615;41.410;2.194;2022-08-06T10:13:23;101560.91;;;37.95;24.36
49397;BME280;35615;41.410;2.194;2022-08-06T10:15:55;101571.03;;;38.05;24.83
49397;BME280;35615;41.410;2.194;2022-08-06T10:21:27;101573.38;;;37.83;25.17
49397;BME280;35615;41.410;2.194;2022-08-06T10:24:14;101560.91;;;37.95;25.00
49397;BME280;35615;41.410;2.194;2022-08-06T10:27:08;101562.72;;;38.08;24.87
49397;BME280;35615;41.410;2.194;2022-08-06T10:30:01;101555.16;;;37.87;25.49
49397;BME280;35615;41.410;2.194;2022-08-06T10:32:41;101554.91;;;37.47;25.64
49397;BME280;35615;41.410;2.194;2022-08-06T10:35:11;101563.91;;;38.04;25.63
49397;BME280;35615;41.410;2.194;2022-08-06T10:37:47;101559.75;;;37.99;25.39
49397;BME280;35615;41.410;2.194;2022-08-06T10:40:20;101550.72;;;37.86;24.96
49397;BME280;35615;41.410;2.194;2022-08-06T10:43:02;101548.84;;;38.15;25.39
49397;BME280;35615;41.410;2.194;2022-08-06T10:45:41;101550.75;;;38.54;24.94
49397;BME280;35615;41.410;2.194;2022-08-06T10:48:17;101548.81;;;38.56;25.16
49397;BME280;35615;41.410;2.194;2022-08-06T10:51:09;101545.94;;;38.86;25.17
49397;BME280;35615;41.410;2.194;2022-08-06T10:53:41;101547.03;;;38.01;25.37
49397;BME280;35615;41.410;2.194;2022-08-06T10:56:29;101547.53;;;37.36;26.44
49397;BME280;35615;41.410;2.194;2022-08-06T10:59:06;101547.31;;;37.54;26.62
49397;BME280;35615;41.410;2.194;2022-08-06T11:02:23;101545.03;;;37.47;27.13
49397;BME280;35615;41.410;2.194;2022-08-06T11:04:57;101551.00;;;37.22;27.75
49397;BME280;35615;41.410;2.194;2022-08-06T11:14:11;101540.88;;;37.56;26.23
49397;BME280;35615;41.410;2.194;2022-08-06T11:16:57;101550.63;;;37.87;25.97
49397;BME280;35615;41.410;2.194;2022-08-06T11:22:36;101552.16;;;37.48;26.00
49397;BME280;35615;41.410;2.194;2022-08-06T11:25:07;101547.91;;;37.59;26.16
49397;BME280;35615;41.410;2.194;2022-08-06T11:30:45;101540.06;;;37.26;26.83
49397;BME280;35615;41.410;2.194;2022-08-06T11:36:03;101530.56;;;37.48;26.11
49397;BME280;35615;41.410;2.194;2022-08-06T11:41:30;101531.03;;;37.55;26.52
49397;BME280;35615;41.410;2.194;2022-08-06T11:44:31;101533.38;;;37.75;26.59
49397;BME280;35615;41.410;2.194;2022-08-06T11:47:16;101526.22;;;37.74;26.46
49397;BME280;35615;41.410;2.194;2022-08-06T11:49:59;101533.41;;;38.31;25.89
49397;BME280;35615;41.410;2.194;2022-08-06T11:55:08;101512.66;;;38.58;25.45
49397;BME280;35615;41.410;2.194;2022-08-06T11:57:48;101524.44;;;38.30;26.11
49397;BME280;35615;41.410;2.194;2022-08-06T12:00:21;101524.34;;;38.59;25.34
49397;BME280;35615;41.410;2.194;2022-08-06T12:02:50;101510.97;;;38.16;26.69
49397;BME280;35615;41.410;2.194;2022-08-06T12:08:14;101504.31;;;38.22;26.73
49397;BME280;35615;41.410;2.194;2022-08-06T12:11:26;101514.94;;;38.25;26.19
49397;BME280;35615;41.410;2.194;2022-08-06T12:14:04;101507.03;;;38.49;26.18
49397;BME280;35615;41.410;2.194;2022-08-06T12:16:51;101502.03;;;38.43;26.07
49397;BME280;35615;41.410;2.194;2022-08-06T12:19:25;101506.47;;;38.56;26.30
49397;BME280;35615;41.410;2.194;2022-08-06T12:21:53;101500.09;;;38.72;26.19
49397;BME280;35615;41.410;2.194;2022-08-06T12:24:26;101504.09;;;38.52;26.14
49397;BME280;35615;41.410;2.194;2022-08-06T12:27:15;101504.44;;;38.47;26.56
49397;BME280;35615;41.410;2.194;2022-08-06T12:29:57;101508.09;;;37.91;26.62
49397;BME280;35615;41.410;2.194;2022-08-06T12:32:34;101498.69;;;37.84;25.94
49397;BME280;35615;41.410;2.194;2022-08-06T12:35:19;101499.78;;;37.81;26.80
49397;BME280;35615;41.410;2.194;2022-08-06T12:37:47;101490.59;;;37.27;28.23
49397;BME280;35615;41.410;2.194;2022-08-06T12:40:18;101489.81;;;37.96;27.17
49397;BME280;35615;41.410;2.194;2022-08-06T12:45:41;101484.66;;;37.50;28.14
49397;BME280;35615;41.410;2.194;2022-08-06T12:48:33;101485.69;;;37.62;27.90
49397;BME280;35615;41.410;2.194;2022-08-06T12:51:09;101484.63;;;37.64;27.25
49397;BME280;35615;41.410;2.194;2022-08-06T12:54:06;101462.63;;;37.99;28.34
49397;BME280;35615;41.410;2.194;2022-08-06T12:56:36;101466.63;;;37.79;28.39
49397;BME280;35615;41.410;2.194;2022-08-06T12:59:08;101466.88;;;36.73;30.63
49397;BME280;35615;41.410;2.194;2022-08-06T13:01:50;101461.00;;;37.68;29.04
49397;BME280;35615;41.410;2.194;2022-08-06T13:04:37;101453.84;;;37.40;28.94
49397;BME280;35615;41.410;2.194;2022-08-06T13:07:07;101461.91;;;37.54;28.89
49397;BME280;35615;41.410;2.194;2022-08-06T13:09:42;101450.63;;;37.62;28.18
49397;BME280;35615;41.410;2.194;2022-08-06T13:12:31;101454.13;;;38.05;28.13
49397;BME280;35615;41.410;2.194;2022-08-06T13:15:18;101447.84;;;37.77;28.48
49397;BME280;35615;41.410;2.194;2022-08-06T13:18:08;101455.16;;;37.18;29.36
49397;BME280;35615;41.410;2.194;2022-08-06T13:20:57;101448.44;;;37.26;29.20
49397;BME280;35615;41.410;2.194;2022-08-06T13:23:35;101446.25;;;36.88;29.25
49397;BME280;35615;41.410;2.194;2022-08-06T13:26:24;101447.84;;;36.92;29.40
49397;BME280;35615;41.410;2.194;2022-08-06T13:29:19;101435.59;;;36.86;30.14
49397;BME280;35615;41.410;2.194;2022-08-06T13:32:10;101443.66;;;36.56;30.38
49397;BME280;35615;41.410;2.194;2022-08-06T13:35:03;101435.25;;;36.77;30.77
49397;BME280;35615;41.410;2.194;2022-08-06T13:37:46;101431.06;;;36.27;32.61
49397;BME280;35615;41.410;2.194;2022-08-06T13:40:37;101414.00;;;36.72;32.26
49397;BME280;35615;41.410;2.194;2022-08-06T13:43:11;101420.22;;;37.03;31.94
49397;BME280;35615;41.410;2.194;2022-08-06T13:46:10;101416.50;;;36.45;33.67
49397;BME280;35615;41.410;2.194;2022-08-06T13:48:51;101419.56;;;36.69;32.76
49397;BME280;35615;41.410;2.194;2022-08-06T13:51:20;101405.00;;;36.57;32.99
49397;BME280;35615;41.410;2.194;2022-08-06T13:53:54;101405.09;;;36.86;33.25
49397;BME280;35615;41.410;2.194;2022-08-06T13:56:26;101408.72;;;36.71;33.46
49397;BME280;35615;41.410;2.194;2022-08-06T13:58:58;101407.66;;;36.73;33.92
49397;BME280;35615;41.410;2.194;2022-08-06T14:01:27;101400.19;;;36.32;34.98
49397;BME280;35615;41.410;2.194;2022-08-06T14:04:12;101407.88;;;36.40;34.96
49397;BME280;35615;41.410;2.194;2022-08-06T14:06:41;101396.75;;;36.30;35.02
49397;BME280;35615;41.410;2.194;2022-08-06T14:09:13;101382.91;;;36.06;35.30
49397;BME280;35615;41.410;2.194;2022-08-06T14:11:48;101384.94;;;36.63;34.73
49397;BME280;35615;41.410;2.194;2022-08-06T14:14:21;101380.41;;;36.63;34.88
49397;BME280;35615;41.410;2.194;2022-08-06T14:16:52;101373.59;;;36.28;35.21
49397;BME280;35615;41.410;2.194;2022-08-06T14:19:20;101366.97;;;35.88;35.96
49397;BME280;35615;41.410;2.194;2022-08-06T14:22:07;101363.13;;;36.07;35.78
49397;BME280;35615;41.410;2.194;2022-08-06T14:24:36;101376.69;;;36.36;35.22
49397;BME280;35615;41.410;2.194;2022-08-06T14:27:07;101359.53;;;36.23;36.01
49397;BME280;35615;41.410;2.194;2022-08-06T14:29:52;101359.78;;;36.34;35.16
49397;BME280;35615;41.410;2.194;2022-08-06T14:32:42;101366.53;;;35.95;36.64
49397;BME280;35615;41.410;2.194;2022-08-06T14:35:14;101361.88;;;35.51;36.69
49397;BME280;35615;41.410;2.194;2022-08-06T14:37:43;101365.63;;;35.32;37.52
49397;BME280;35615;41.410;2.194;2022-08-06T14:40:22;101353.53;;;35.40;36.90
49397;BME280;35615;41.410;2.194;2022-08-06T14:43:29;101354.66;;;35.52;37.97
49397;BME280;35615;41.410;2.194;2022-08-06T14:46:26;101354.59;;;35.38;36.77
49397;BME280;35615;41.410;2.194;2022-08-06T14:49:00;101343.66;;;35.72;33.62
49397;BME280;35615;41.410;2.194;2022-08-06T14:51:38;101342.06;;;35.37;34.81
49397;BME280;35615;41.410;2.194;2022-08-06T14:54:26;101351.72;;;35.72;33.30
49397;BME280;35615;41.410;2.194;2022-08-06T14:57:03;101344.84;;;35.67;33.36